sensor_id;sensor_type;location;lat;lon;timestamp;P1;durP1;ratioP1;P2;durP2;ratioP2
10116;SDS011;5098;48.792;9.012;2023-11-21T00:01:11;2.20;;;1.60;;
10116;SDS011;5098;48.792;9.012;2023-11-21T00:03:37;4.13;;;1.63;;
10116;SDS011;5098;48.792;9.012;2023-11-21T00:06:03;3.87;;;1.60;;
10116;SDS011;5098;48.792;9.012;2023-11-21T00:08:29;4.05;;;2.20;;
10116;SDS011;5098;48.792;9.012;2023-11-21T00:10:55;4.77;;;1.60;;
10116;SDS011;5098;48.792;9.012;2023-11-21T00:13:22;4.90;;;1.30;;
10116;SDS011;5098;48.792;9.012;2023-11-21T00:15:48;2.83;;;1.60;;
10116;SDS011;5098;48.792;9.012;2023-11-21T00:18:14;3.87;;;2.07;;
10116;SDS011;5098;48.792;9.012;2023-11-21T00:20:50;3.60;;;1.97;;
10116;SDS011;5098;48.792;9.012;2023-11-21T00:23:17;6.17;;;3.57;;
10116;SDS011;5098;48.792;9.012;2023-11-21T00:25:43;5.13;;;2.27;;
10116;SDS011;5098;48.792;9.012;2023-11-21T00:28:09;6.40;;;2.10;;
10116;SDS011;5098;48.792;9.012;2023-11-21T00:30:35;6.63;;;2.00;;
10116;SDS011;5098;48.792;9.012;2023-11-21T00:33:01;2.10;;;1.50;;
10116;SDS011;5098;48.792;9.012;2023-11-21T00:35:27;4.50;;;2.20;;
10116;SDS011;5098;48.792;9.012;2023-11-21T00:37:53;4.83;;;1.80;;
10116;SDS011;5098;48.792;9.012;2023-11-21T00:40:19;3.73;;;1.70;;
10116;SDS011;5098;48.792;9.012;2023-11-21T00:42:46;2.73;;;2.03;;
10116;SDS011;5098;48.792;9.012;2023-11-21T00:45:12;4.20;;;1.60;;
10116;SDS011;5098;48.792;9.012;2023-11-21T00:47:38;1.90;;;1.43;;
10116;SDS011;5098;48.792;9.012;2023-11-21T00:50:04;3.30;;;1.40;;
10116;SDS011;5098;48.792;9.012;2023-11-21T00:52:34;5.13;;;1.70;;
10116;SDS011;5098;48.792;9.012;2023-11-21T00:55:01;3.03;;;1.80;;
10116;SDS011;5098;48.792;9.012;2023-11-21T00:57:28;10.53;;;2.07;;
10116;SDS011;5098;48.792;9.012;2023-11-21T00:59:54;2.87;;;1.50;;
10116;SDS011;5098;48.792;9.012;2023-11-21T01:02:20;3.00;;;1.50;;
10116;SDS011;5098;48.792;9.012;2023-11-21T01:04:46;6.07;;;1.80;;
10116;SDS011;5098;48.792;9.012;2023-11-21T01:07:13;4.03;;;1.53;;
10116;SDS011;5098;48.792;9.012;2023-11-21T01:09:39;2.73;;;1.87;;
10116;SDS011;5098;48.792;9.012;2023-11-21T01:12:05;1.57;;;1.13;;
10116;SDS011;5098;48.792;9.012;2023-11-21T01:14:31;3.03;;;1.37;;
10116;SDS011;5098;48.792;9.012;2023-11-21T01:16:57;2.13;;;1.50;;
10116;SDS011;5098;48.792;9.012;2023-11-21T01:19:23;6.10;;;1.50;;
10116;SDS011;5098;48.792;9.012;2023-11-21T01:21:49;3.00;;;1.87;;
10116;SDS011;5098;48.792;9.012;2023-11-21T01:24:17;6.77;;;1.70;;
10116;SDS011;5098;48.792;9.012;2023-11-21T01:26:43;2.43;;;1.43;;
10116;SDS011;5098;48.792;9.012;2023-11-21T01:29:11;2.53;;;1.20;;
10116;SDS011;5098;48.792;9.012;2023-11-21T01:31:37;2.90;;;1.60;;
10116;SDS011;5098;48.792;9.012;2023-11-21T01:34:03;6.13;;;1.60;;
10116;SDS011;5098;48.792;9.012;2023-11-21T01:36:30;3.40;;;1.37;;
10116;SDS011;5098;48.792;9.012;2023-11-21T01:38:57;3.83;;;1.37;;
10116;SDS011;5098;48.792;9.012;2023-11-21T01:41:24;2.70;;;1.77;;
10116;SDS011;5098;48.792;9.012;2023-11-21T01:43:52;3.87;;;1.87;;
10116;SDS011;5098;48.792;9.012;2023-11-21T01:46:19;1.83;;;1.40;;
10116;SDS011;5098;48.792;9.012;2023-11-21T01:48:45;2.50;;;1.30;;
10116;SDS011;5098;48.792;9.012;2023-11-21T01:51:11;4.70;;;1.53;;
10116;SDS011;5098;48.792;9.012;2023-11-21T01:53:37;4.30;;;1.63;;
10116;SDS011;5098;48.792;9.012;2023-11-21T01:56:05;7.13;;;1.90;;
10116;SDS011;5098;48.792;9.012;2023-11-21T01:58:33;5.43;;;1.90;;
10116;SDS011;5098;48.792;9.012;2023-11-21T02:00:59;4.40;;;1.10;;
10116;SDS011;5098;48.792;9.012;2023-11-21T02:03:25;5.57;;;1.70;;
10116;SDS011;5098;48.792;9.012;2023-11-21T02:05:52;4.43;;;1.33;;
10116;SDS011;5098;48.792;9.012;2023-11-21T02:08:18;2.93;;;1.20;;
10116;SDS011;5098;48.792;9.012;2023-11-21T02:10:44;4.80;;;1.50;;
10116;SDS011;5098;48.792;9.012;2023-11-21T02:13:11;2.10;;;1.40;;
10116;SDS011;5098;48.792;9.012;2023-11-21T02:15:37;2.60;;;1.60;;
10116;SDS011;5098;48.792;9.012;2023-11-21T02:18:03;3.37;;;1.70;;
10116;SDS011;5098;48.792;9.012;2023-11-21T02:20:31;2.17;;;1.75;;
10116;SDS011;5098;48.792;9.012;2023-11-21T02:23:00;3.50;;;1.03;;
10116;SDS011;5098;48.792;9.012;2023-11-21T02:25:27;5.00;;;2.20;;
10116;SDS011;5098;48.792;9.012;2023-11-21T02:27:56;4.00;;;1.87;;
10116;SDS011;5098;48.792;9.012;2023-11-21T02:30:22;3.17;;;1.70;;
10116;SDS011;5098;48.792;9.012;2023-11-21T02:32:50;1.57;;;1.20;;
10116;SDS011;5098;48.792;9.012;2023-11-21T02:35:19;2.90;;;1.67;;
10116;SDS011;5098;48.792;9.012;2023-11-21T02:37:51;4.57;;;2.13;;
10116;SDS011;5098;48.792;9.012;2023-11-21T02:40:17;5.83;;;2.17;;
10116;SDS011;5098;48.792;9.012;2023-11-21T02:42:43;2.50;;;1.60;;
10116;SDS011;5098;48.792;9.012;2023-11-21T02:45:10;5.03;;;1.73;;
10116;SDS011;5098;48.792;9.012;2023-11-21T02:47:41;4.97;;;1.37;;
10116;SDS011;5098;48.792;9.012;2023-11-21T02:50:08;3.43;;;1.37;;
10116;SDS011;5098;48.792;9.012;2023-11-21T02:52:34;4.43;;;1.50;;
10116;SDS011;5098;48.792;9.012;2023-11-21T02:55:01;1.97;;;1.57;;
10116;SDS011;5098;48.792;9.012;2023-11-21T02:57:27;2.10;;;1.40;;
10116;SDS011;5098;48.792;9.012;2023-11-21T02:59:53;3.40;;;1.40;;
10116;SDS011;5098;48.792;9.012;2023-11-21T03:02:19;2.50;;;1.17;;
10116;SDS011;5098;48.792;9.012;2023-11-21T03:04:45;1.77;;;1.27;;
10116;SDS011;5098;48.792;9.012;2023-11-21T03:07:14;4.83;;;1.73;;
10116;SDS011;5098;48.792;9.012;2023-11-21T03:09:40;3.53;;;1.80;;
10116;SDS011;5098;48.792;9.012;2023-11-21T03:12:06;2.80;;;1.73;;
10116;SDS011;5098;48.792;9.012;2023-11-21T03:14:32;1.50;;;1.20;;
10116;SDS011;5098;48.792;9.012;2023-11-21T03:16:58;4.20;;;1.87;;
10116;SDS011;5098;48.792;9.012;2023-11-21T03:19:24;3.43;;;1.40;;
10116;SDS011;5098;48.792;9.012;2023-11-21T03:21:50;5.10;;;1.40;;
10116;SDS011;5098;48.792;9.012;2023-11-21T03:24:18;5.33;;;1.53;;
10116;SDS011;5098;48.792;9.012;2023-11-21T03:26:45;3.53;;;1.50;;
10116;SDS011;5098;48.792;9.012;2023-11-21T03:29:11;5.53;;;1.30;;
10116;SDS011;5098;48.792;9.012;2023-11-21T03:31:38;3.20;;;1.47;;
10116;SDS011;5098;48.792;9.012;2023-11-21T03:34:04;3.10;;;1.40;;
10116;SDS011;5098;48.792;9.012;2023-11-21T03:36:31;3.20;;;2.03;;
10116;SDS011;5098;48.792;9.012;2023-11-21T03:38:57;2.70;;;1.57;;
10116;SDS011;5098;48.792;9.012;2023-11-21T03:41:23;4.73;;;1.43;;
10116;SDS011;5098;48.792;9.012;2023-11-21T03:43:50;2.73;;;1.30;;
10116;SDS011;5098;48.792;9.012;2023-11-21T03:46:16;2.17;;;1.30;;
10116;SDS011;5098;48.792;9.012;2023-11-21T03:48:42;1.70;;;1.50;;
10116;SDS011;5098;48.792;9.012;2023-11-21T03:51:08;3.20;;;1.50;;
10116;SDS011;5098;48.792;9.012;2023-11-21T03:53:34;1.73;;;1.30;;
10116;SDS011;5098;48.792;9.012;2023-11-21T03:56:02;1.90;;;1.40;;
10116;SDS011;5098;48.792;9.012;2023-11-21T03:58:29;4.90;;;1.70;;
10116;SDS011;5098;48.792;9.012;2023-11-21T04:00:55;6.40;;;2.00;;
10116;SDS011;5098;48.792;9.012;2023-11-21T04:03:21;3.57;;;1.30;;
10116;SDS011;5098;48.792;9.012;2023-11-21T04:05:47;1.90;;;1.20;;
10116;SDS011;5098;48.792;9.012;2023-11-21T04:08:13;1.67;;;1.40;;
10116;SDS011;5098;48.792;9.012;2023-11-21T04:10:39;1.67;;;1.50;;
10116;SDS011;5098;48.792;9.012;2023-11-21T04:13:07;3.20;;;1.43;;
10116;SDS011;5098;48.792;9.012;2023-11-21T04:15:33;2.40;;;1.37;;
10116;SDS011;5098;48.792;9.012;2023-11-21T04:17:59;2.13;;;1.13;;
10116;SDS011;5098;48.792;9.012;2023-11-21T04:20:25;3.87;;;1.30;;
10116;SDS011;5098;48.792;9.012;2023-11-21T04:22:51;2.80;;;1.70;;
10116;SDS011;5098;48.792;9.012;2023-11-21T04:25:17;3.40;;;1.60;;
10116;SDS011;5098;48.792;9.012;2023-11-21T04:27:44;2.17;;;1.30;;
10116;SDS011;5098;48.792;9.012;2023-11-21T04:30:10;1.93;;;1.50;;
10116;SDS011;5098;48.792;9.012;2023-11-21T04:32:36;2.20;;;1.47;;
10116;SDS011;5098;48.792;9.012;2023-11-21T04:35:04;1.77;;;1.47;;
10116;SDS011;5098;48.792;9.012;2023-11-21T04:37:30;2.00;;;1.23;;
10116;SDS011;5098;48.792;9.012;2023-11-21T04:39:56;2.47;;;1.60;;
10116;SDS011;5098;48.792;9.012;2023-11-21T04:42:22;1.73;;;1.10;;
10116;SDS011;5098;48.792;9.012;2023-11-21T04:44:48;2.73;;;1.67;;
10116;SDS011;5098;48.792;9.012;2023-11-21T04:47:15;2.10;;;1.30;;
10116;SDS011;5098;48.792;9.012;2023-11-21T04:49:44;4.23;;;1.50;;
10116;SDS011;5098;48.792;9.012;2023-11-21T04:52:14;1.53;;;1.43;;
10116;SDS011;5098;48.792;9.012;2023-11-21T04:54:40;1.83;;;1.40;;
10116;SDS011;5098;48.792;9.012;2023-11-21T04:57:06;2.23;;;1.27;;
10116;SDS011;5098;48.792;9.012;2023-11-21T04:59:32;5.13;;;1.33;;
10116;SDS011;5098;48.792;9.012;2023-11-21T05:01:59;2.30;;;1.30;;
10116;SDS011;5098;48.792;9.012;2023-11-21T05:04:28;2.13;;;1.60;;
10116;SDS011;5098;48.792;9.012;2023-11-21T05:06:54;2.90;;;1.50;;
10116;SDS011;5098;48.792;9.012;2023-11-21T05:09:20;2.20;;;1.27;;
10116;SDS011;5098;48.792;9.012;2023-11-21T05:11:47;1.50;;;1.10;;
10116;SDS011;5098;48.792;9.012;2023-11-21T05:14:13;1.47;;;1.23;;
10116;SDS011;5098;48.792;9.012;2023-11-21T05:16:39;1.33;;;1.17;;
10116;SDS011;5098;48.792;9.012;2023-11-21T05:19:05;1.50;;;1.03;;
10116;SDS011;5098;48.792;9.012;2023-11-21T05:21:31;2.97;;;1.10;;
10116;SDS011;5098;48.792;9.012;2023-11-21T05:23:57;3.00;;;1.70;;
10116;SDS011;5098;48.792;9.012;2023-11-21T05:26:24;3.50;;;1.43;;
10116;SDS011;5098;48.792;9.012;2023-11-21T05:28:50;3.43;;;1.67;;
10116;SDS011;5098;48.792;9.012;2023-11-21T05:31:16;4.20;;;1.80;;
10116;SDS011;5098;48.792;9.012;2023-11-21T05:33:42;1.90;;;1.50;;
10116;SDS011;5098;48.792;9.012;2023-11-21T05:36:08;2.10;;;1.60;;
10116;SDS011;5098;48.792;9.012;2023-11-21T05:38:35;1.50;;;1.27;;
10116;SDS011;5098;48.792;9.012;2023-11-21T05:41:01;2.17;;;1.80;;
10116;SDS011;5098;48.792;9.012;2023-11-21T05:43:28;1.50;;;1.30;;
10116;SDS011;5098;48.792;9.012;2023-11-21T05:45:55;1.57;;;1.47;;
10116;SDS011;5098;48.792;9.012;2023-11-21T05:48:21;2.03;;;1.37;;
10116;SDS011;5098;48.792;9.012;2023-11-21T05:50:48;2.37;;;2.17;;
10116;SDS011;5098;48.792;9.012;2023-11-21T05:53:15;4.40;;;1.70;;
10116;SDS011;5098;48.792;9.012;2023-11-21T05:55:41;3.43;;;1.30;;
10116;SDS011;5098;48.792;9.012;2023-11-21T05:58:08;5.30;;;1.67;;
10116;SDS011;5098;48.792;9.012;2023-11-21T06:00:34;1.97;;;1.77;;
10116;SDS011;5098;48.792;9.012;2023-11-21T06:03:00;2.67;;;1.80;;
10116;SDS011;5098;48.792;9.012;2023-11-21T06:05:26;3.30;;;1.40;;
10116;SDS011;5098;48.792;9.012;2023-11-21T06:07:53;1.97;;;1.77;;
10116;SDS011;5098;48.792;9.012;2023-11-21T06:10:20;3.27;;;1.87;;
10116;SDS011;5098;48.792;9.012;2023-11-21T06:12:47;2.30;;;2.10;;
10116;SDS011;5098;48.792;9.012;2023-11-21T06:15:13;3.67;;;2.30;;
10116;SDS011;5098;48.792;9.012;2023-11-21T06:17:40;2.73;;;2.23;;
10116;SDS011;5098;48.792;9.012;2023-11-21T06:20:07;2.60;;;2.10;;
10116;SDS011;5098;48.792;9.012;2023-11-21T06:22:39;4.67;;;2.20;;
10116;SDS011;5098;48.792;9.012;2023-11-21T06:25:06;2.50;;;1.70;;
10116;SDS011;5098;48.792;9.012;2023-11-21T06:27:34;3.30;;;1.90;;
10116;SDS011;5098;48.792;9.012;2023-11-21T06:30:01;7.33;;;2.07;;
10116;SDS011;5098;48.792;9.012;2023-11-21T06:32:27;2.67;;;1.77;;
10116;SDS011;5098;48.792;9.012;2023-11-21T06:34:55;2.80;;;1.60;;
10116;SDS011;5098;48.792;9.012;2023-11-21T06:37:21;2.60;;;2.00;;
10116;SDS011;5098;48.792;9.012;2023-11-21T06:39:48;6.97;;;3.73;;
10116;SDS011;5098;48.792;9.012;2023-11-21T06:42:17;3.30;;;2.70;;
10116;SDS011;5098;48.792;9.012;2023-11-21T06:44:44;3.00;;;2.10;;
10116;SDS011;5098;48.792;9.012;2023-11-21T06:47:10;3.07;;;2.30;;
10116;SDS011;5098;48.792;9.012;2023-11-21T06:49:36;2.53;;;1.70;;
10116;SDS011;5098;48.792;9.012;2023-11-21T06:52:03;3.10;;;2.67;;
10116;SDS011;5098;48.792;9.012;2023-11-21T06:54:30;4.70;;;2.60;;
10116;SDS011;5098;48.792;9.012;2023-11-21T06:56:57;2.87;;;2.30;;
10116;SDS011;5098;48.792;9.012;2023-11-21T06:59:23;4.60;;;2.27;;
10116;SDS011;5098;48.792;9.012;2023-11-21T07:01:50;2.57;;;2.20;;
10116;SDS011;5098;48.792;9.012;2023-11-21T07:04:16;4.53;;;2.67;;
10116;SDS011;5098;48.792;9.012;2023-11-21T07:07:02;5.50;;;2.50;;
10116;SDS011;5098;48.792;9.012;2023-11-21T07:09:29;4.33;;;2.60;;
10116;SDS011;5098;48.792;9.012;2023-11-21T07:11:55;3.53;;;2.30;;
10116;SDS011;5098;48.792;9.012;2023-11-21T07:14:21;4.50;;;3.53;;
10116;SDS011;5098;48.792;9.012;2023-11-21T07:16:47;2.70;;;2.10;;
10116;SDS011;5098;48.792;9.012;2023-11-21T07:19:13;3.10;;;2.10;;
10116;SDS011;5098;48.792;9.012;2023-11-21T07:21:40;2.80;;;2.23;;
10116;SDS011;5098;48.792;9.012;2023-11-21T07:24:06;2.47;;;2.00;;
10116;SDS011;5098;48.792;9.012;2023-11-21T07:26:33;2.30;;;2.10;;
10116;SDS011;5098;48.792;9.012;2023-11-21T07:29:00;2.90;;;2.33;;
10116;SDS011;5098;48.792;9.012;2023-11-21T07:31:26;3.60;;;2.50;;
10116;SDS011;5098;48.792;9.012;2023-11-21T07:33:52;7.20;;;2.10;;
10116;SDS011;5098;48.792;9.012;2023-11-21T07:36:21;3.07;;;2.23;;
10116;SDS011;5098;48.792;9.012;2023-11-21T07:38:47;2.40;;;2.10;;
10116;SDS011;5098;48.792;9.012;2023-11-21T07:41:14;2.20;;;2.00;;
10116;SDS011;5098;48.792;9.012;2023-11-21T07:43:43;2.67;;;1.97;;
10116;SDS011;5098;48.792;9.012;2023-11-21T07:46:10;2.63;;;2.17;;
10116;SDS011;5098;48.792;9.012;2023-11-21T07:48:37;4.53;;;2.17;;
10116;SDS011;5098;48.792;9.012;2023-11-21T07:51:03;3.53;;;2.00;;
10116;SDS011;5098;48.792;9.012;2023-11-21T07:53:29;3.40;;;2.07;;
10116;SDS011;5098;48.792;9.012;2023-11-21T07:55:56;3.40;;;2.20;;
10116;SDS011;5098;48.792;9.012;2023-11-21T07:58:22;2.93;;;2.13;;
10116;SDS011;5098;48.792;9.012;2023-11-21T08:00:49;3.17;;;1.97;;
10116;SDS011;5098;48.792;9.012;2023-11-21T08:03:15;3.13;;;1.83;;
10116;SDS011;5098;48.792;9.012;2023-11-21T08:05:42;2.60;;;2.00;;
10116;SDS011;5098;48.792;9.012;2023-11-21T08:08:08;3.37;;;2.10;;
10116;SDS011;5098;48.792;9.012;2023-11-21T08:10:34;5.63;;;2.47;;
10116;SDS011;5098;48.792;9.012;2023-11-21T08:13:01;3.63;;;3.00;;
10116;SDS011;5098;48.792;9.012;2023-11-21T08:15:27;3.63;;;2.70;;
10116;SDS011;5098;48.792;9.012;2023-11-21T08:17:53;2.73;;;2.23;;
10116;SDS011;5098;48.792;9.012;2023-11-21T08:20:19;3.00;;;2.70;;
10116;SDS011;5098;48.792;9.012;2023-11-21T08:22:47;3.30;;;2.90;;
10116;SDS011;5098;48.792;9.012;2023-11-21T08:25:13;4.37;;;3.30;;
10116;SDS011;5098;48.792;9.012;2023-11-21T08:27:40;5.20;;;2.87;;
10116;SDS011;5098;48.792;9.012;2023-11-21T08:30:06;4.57;;;2.83;;
10116;SDS011;5098;48.792;9.012;2023-11-21T08:32:32;4.83;;;2.70;;
10116;SDS011;5098;48.792;9.012;2023-11-21T08:34:59;4.50;;;2.83;;
10116;SDS011;5098;48.792;9.012;2023-11-21T08:37:26;4.10;;;2.80;;
10116;SDS011;5098;48.792;9.012;2023-11-21T08:39:55;5.50;;;4.13;;
10116;SDS011;5098;48.792;9.012;2023-11-21T08:42:21;3.97;;;3.30;;
10116;SDS011;5098;48.792;9.012;2023-11-21T08:44:48;5.90;;;2.97;;
10116;SDS011;5098;48.792;9.012;2023-11-21T08:47:14;2.90;;;2.60;;
10116;SDS011;5098;48.792;9.012;2023-11-21T08:49:40;3.50;;;2.37;;
10116;SDS011;5098;48.792;9.012;2023-11-21T08:52:06;4.17;;;2.50;;
10116;SDS011;5098;48.792;9.012;2023-11-21T08:54:32;4.40;;;3.57;;
10116;SDS011;5098;48.792;9.012;2023-11-21T08:56:59;5.43;;;3.37;;
10116;SDS011;5098;48.792;9.012;2023-11-21T08:59:25;4.43;;;2.70;;
10116;SDS011;5098;48.792;9.012;2023-11-21T09:01:51;3.00;;;2.33;;
10116;SDS011;5098;48.792;9.012;2023-11-21T09:04:17;2.77;;;1.90;;
10116;SDS011;5098;48.792;9.012;2023-11-21T09:06:44;3.60;;;2.20;;
10116;SDS011;5098;48.792;9.012;2023-11-21T09:09:10;6.30;;;4.10;;
10116;SDS011;5098;48.792;9.012;2023-11-21T09:11:36;3.67;;;3.00;;
10116;SDS011;5098;48.792;9.012;2023-11-21T09:14:03;5.50;;;3.47;;
10116;SDS011;5098;48.792;9.012;2023-11-21T09:16:29;4.07;;;3.03;;
10116;SDS011;5098;48.792;9.012;2023-11-21T09:18:55;4.20;;;2.73;;
10116;SDS011;5098;48.792;9.012;2023-11-21T09:21:21;3.93;;;3.20;;
10116;SDS011;5098;48.792;9.012;2023-11-21T09:23:48;3.50;;;2.90;;
10116;SDS011;5098;48.792;9.012;2023-11-21T09:26:14;3.17;;;2.60;;
10116;SDS011;5098;48.792;9.012;2023-11-21T09:28:41;6.67;;;3.60;;
10116;SDS011;5098;48.792;9.012;2023-11-21T09:31:11;4.20;;;3.20;;
10116;SDS011;5098;48.792;9.012;2023-11-21T09:33:37;4.77;;;2.93;;
10116;SDS011;5098;48.792;9.012;2023-11-21T09:36:04;2.90;;;2.10;;
10116;SDS011;5098;48.792;9.012;2023-11-21T09:38:30;2.97;;;1.90;;
10116;SDS011;5098;48.792;9.012;2023-11-21T09:40:56;2.10;;;1.90;;
10116;SDS011;5098;48.792;9.012;2023-11-21T09:43:23;2.23;;;1.80;;
10116;SDS011;5098;48.792;9.012;2023-11-21T09:45:56;4.70;;;2.13;;
10116;SDS011;5098;48.792;9.012;2023-11-21T09:48:25;5.00;;;2.00;;
10116;SDS011;5098;48.792;9.012;2023-11-21T09:50:51;2.63;;;2.43;;
10116;SDS011;5098;48.792;9.012;2023-11-21T09:53:20;3.60;;;3.17;;
10116;SDS011;5098;48.792;9.012;2023-11-21T09:55:47;4.73;;;2.83;;
10116;SDS011;5098;48.792;9.012;2023-11-21T09:58:13;6.03;;;5.00;;
10116;SDS011;5098;48.792;9.012;2023-11-21T10:00:43;5.70;;;4.73;;
10116;SDS011;5098;48.792;9.012;2023-11-21T10:03:10;3.87;;;3.47;;
10116;SDS011;5098;48.792;9.012;2023-11-21T10:05:37;5.30;;;3.43;;
10116;SDS011;5098;48.792;9.012;2023-11-21T10:08:04;4.40;;;3.33;;
10116;SDS011;5098;48.792;9.012;2023-11-21T10:10:32;3.30;;;2.70;;
10116;SDS011;5098;48.792;9.012;2023-11-21T10:13:01;3.97;;;2.90;;
10116;SDS011;5098;48.792;9.012;2023-11-21T10:15:28;3.10;;;2.60;;
10116;SDS011;5098;48.792;9.012;2023-11-21T10:17:54;7.00;;;4.07;;
10116;SDS011;5098;48.792;9.012;2023-11-21T10:20:21;10.53;;;8.90;;
10116;SDS011;5098;48.792;9.012;2023-11-21T10:22:49;4.33;;;3.80;;
10116;SDS011;5098;48.792;9.012;2023-11-21T10:25:15;2.73;;;2.50;;
10116;SDS011;5098;48.792;9.012;2023-11-21T10:27:48;2.83;;;2.53;;
10116;SDS011;5098;48.792;9.012;2023-11-21T10:30:17;3.10;;;2.37;;
10116;SDS011;5098;48.792;9.012;2023-11-21T10:32:43;3.27;;;2.93;;
10116;SDS011;5098;48.792;9.012;2023-11-21T10:35:09;5.43;;;3.53;;
10116;SDS011;5098;48.792;9.012;2023-11-21T10:37:36;3.40;;;3.10;;
10116;SDS011;5098;48.792;9.012;2023-11-21T10:40:08;4.30;;;3.40;;
10116;SDS011;5098;48.792;9.012;2023-11-21T10:42:40;4.60;;;3.67;;
10116;SDS011;5098;48.792;9.012;2023-11-21T10:45:07;8.00;;;3.40;;
10116;SDS011;5098;48.792;9.012;2023-11-21T10:47:40;4.83;;;3.00;;
10116;SDS011;5098;48.792;9.012;2023-11-21T10:50:07;5.00;;;3.50;;
10116;SDS011;5098;48.792;9.012;2023-11-21T10:52:37;3.90;;;3.40;;
10116;SDS011;5098;48.792;9.012;2023-11-21T10:55:25;3.77;;;3.47;;
10116;SDS011;5098;48.792;9.012;2023-11-21T10:57:52;3.73;;;3.17;;
10116;SDS011;5098;48.792;9.012;2023-11-21T11:00:18;3.60;;;3.00;;
10116;SDS011;5098;48.792;9.012;2023-11-21T11:02:50;3.40;;;3.03;;
10116;SDS011;5098;48.792;9.012;2023-11-21T11:05:18;4.50;;;2.97;;
10116;SDS011;5098;48.792;9.012;2023-11-21T11:07:45;9.17;;;4.20;;
10116;SDS011;5098;48.792;9.012;2023-11-21T11:10:14;3.90;;;3.50;;
10116;SDS011;5098;48.792;9.012;2023-11-21T11:12:43;4.47;;;3.40;;
10116;SDS011;5098;48.792;9.012;2023-11-21T11:15:11;6.30;;;3.20;;
10116;SDS011;5098;48.792;9.012;2023-11-21T11:17:38;7.30;;;3.93;;
10116;SDS011;5098;48.792;9.012;2023-11-21T11:20:05;3.73;;;3.43;;
10116;SDS011;5098;48.792;9.012;2023-11-21T11:22:41;4.40;;;3.87;;
10116;SDS011;5098;48.792;9.012;2023-11-21T11:28:14;3.50;;;2.80;;
10116;SDS011;5098;48.792;9.012;2023-11-21T11:30:45;2.33;;;2.13;;
10116;SDS011;5098;48.792;9.012;2023-11-21T11:33:23;2.40;;;2.20;;
10116;SDS011;5098;48.792;9.012;2023-11-21T11:36:06;3.40;;;2.73;;
10116;SDS011;5098;48.792;9.012;2023-11-21T11:38:33;2.70;;;2.03;;
10116;SDS011;5098;48.792;9.012;2023-11-21T11:41:04;2.60;;;2.40;;
10116;SDS011;5098;48.792;9.012;2023-11-21T11:43:31;3.93;;;2.40;;
10116;SDS011;5098;48.792;9.012;2023-11-21T11:46:09;2.20;;;2.00;;
10116;SDS011;5098;48.792;9.012;2023-11-21T11:48:39;3.30;;;2.33;;
10116;SDS011;5098;48.792;9.012;2023-11-21T11:53:40;3.40;;;3.10;;
10116;SDS011;5098;48.792;9.012;2023-11-21T11:56:19;3.90;;;3.60;;
10116;SDS011;5098;48.792;9.012;2023-11-21T11:58:48;4.20;;;3.83;;
10116;SDS011;5098;48.792;9.012;2023-11-21T12:01:16;3.90;;;3.50;;
10116;SDS011;5098;48.792;9.012;2023-11-21T12:03:42;4.10;;;3.80;;
10116;SDS011;5098;48.792;9.012;2023-11-21T12:06:08;3.70;;;3.40;;
10116;SDS011;5098;48.792;9.012;2023-11-21T12:08:36;3.43;;;3.13;;
10116;SDS011;5098;48.792;9.012;2023-11-21T12:11:03;4.10;;;3.80;;
10116;SDS011;5098;48.792;9.012;2023-11-21T12:13:29;4.33;;;3.93;;
10116;SDS011;5098;48.792;9.012;2023-11-21T12:15:55;5.47;;;5.07;;
10116;SDS011;5098;48.792;9.012;2023-11-21T12:18:21;5.93;;;5.03;;
10116;SDS011;5098;48.792;9.012;2023-11-21T12:20:47;5.63;;;5.13;;
10116;SDS011;5098;48.792;9.012;2023-11-21T12:23:15;6.10;;;5.60;;
10116;SDS011;5098;48.792;9.012;2023-11-21T12:25:42;5.80;;;5.30;;
10116;SDS011;5098;48.792;9.012;2023-11-21T12:28:08;5.43;;;4.90;;
10116;SDS011;5098;48.792;9.012;2023-11-21T12:30:35;5.53;;;5.03;;
10116;SDS011;5098;48.792;9.012;2023-11-21T12:33:03;5.70;;;5.20;;
10116;SDS011;5098;48.792;9.012;2023-11-21T12:35:32;11.77;;;9.70;;
10116;SDS011;5098;48.792;9.012;2023-11-21T12:37:59;8.27;;;7.47;;
10116;SDS011;5098;48.792;9.012;2023-11-21T12:40:27;5.73;;;5.23;;
10116;SDS011;5098;48.792;9.012;2023-11-21T12:42:57;5.63;;;4.77;;
10116;SDS011;5098;48.792;9.012;2023-11-21T12:45:27;4.73;;;4.33;;
10116;SDS011;5098;48.792;9.012;2023-11-21T12:50:20;5.67;;;5.10;;
10116;SDS011;5098;48.792;9.012;2023-11-21T12:52:53;5.73;;;5.23;;
10116;SDS011;5098;48.792;9.012;2023-11-21T12:55:20;5.83;;;5.30;;
10116;SDS011;5098;48.792;9.012;2023-11-21T12:57:50;6.50;;;5.10;;
10116;SDS011;5098;48.792;9.012;2023-11-21T13:00:18;5.67;;;5.17;;
10116;SDS011;5098;48.792;9.012;2023-11-21T13:02:55;5.80;;;5.30;;
10116;SDS011;5098;48.792;9.012;2023-11-21T13:07:53;6.17;;;5.67;;
10116;SDS011;5098;48.792;9.012;2023-11-21T13:10:21;7.33;;;6.60;;
10116;SDS011;5098;48.792;9.012;2023-11-21T13:12:51;7.20;;;6.60;;
10116;SDS011;5098;48.792;9.012;2023-11-21T13:15:17;7.10;;;5.57;;
10116;SDS011;5098;48.792;9.012;2023-11-21T13:17:44;4.90;;;3.30;;
10116;SDS011;5098;48.792;9.012;2023-11-21T13:20:11;3.10;;;2.63;;
10116;SDS011;5098;48.792;9.012;2023-11-21T13:22:46;3.60;;;2.70;;
10116;SDS011;5098;48.792;9.012;2023-11-21T13:25:13;2.50;;;2.30;;
10116;SDS011;5098;48.792;9.012;2023-11-21T13:27:40;2.27;;;2.03;;
10116;SDS011;5098;48.792;9.012;2023-11-21T13:30:08;2.63;;;1.67;;
10116;SDS011;5098;48.792;9.012;2023-11-21T13:32:35;1.93;;;1.80;;
10116;SDS011;5098;48.792;9.012;2023-11-21T13:35:02;2.17;;;1.60;;
10116;SDS011;5098;48.792;9.012;2023-11-21T13:37:33;2.27;;;2.07;;
10116;SDS011;5098;48.792;9.012;2023-11-21T13:39:59;1.73;;;1.60;;
10116;SDS011;5098;48.792;9.012;2023-11-21T13:42:28;1.53;;;1.43;;
10116;SDS011;5098;48.792;9.012;2023-11-21T13:44:58;2.20;;;2.00;;
10116;SDS011;5098;48.792;9.012;2023-11-21T13:47:24;3.87;;;3.07;;
10116;SDS011;5098;48.792;9.012;2023-11-21T13:49:54;3.40;;;2.87;;
10116;SDS011;5098;48.792;9.012;2023-11-21T13:52:20;2.60;;;2.27;;
10116;SDS011;5098;48.792;9.012;2023-11-21T13:54:51;2.60;;;2.40;;
10116;SDS011;5098;48.792;9.012;2023-11-21T13:57:17;3.27;;;2.40;;
10116;SDS011;5098;48.792;9.012;2023-11-21T13:59:45;6.23;;;5.63;;
10116;SDS011;5098;48.792;9.012;2023-11-21T14:02:11;2.87;;;2.50;;
10116;SDS011;5098;48.792;9.012;2023-11-21T14:04:42;3.00;;;2.73;;
10116;SDS011;5098;48.792;9.012;2023-11-21T14:07:20;2.80;;;2.33;;
10116;SDS011;5098;48.792;9.012;2023-11-21T14:10:01;2.70;;;2.50;;
10116;SDS011;5098;48.792;9.012;2023-11-21T14:12:28;2.97;;;2.70;;
10116;SDS011;5098;48.792;9.012;2023-11-21T14:14:58;3.10;;;2.90;;
10116;SDS011;5098;48.792;9.012;2023-11-21T14:17:25;2.70;;;2.40;;
10116;SDS011;5098;48.792;9.012;2023-11-21T14:19:52;2.60;;;2.40;;
10116;SDS011;5098;48.792;9.012;2023-11-21T14:22:20;2.60;;;1.97;;
10116;SDS011;5098;48.792;9.012;2023-11-21T14:24:47;3.57;;;2.20;;
10116;SDS011;5098;48.792;9.012;2023-11-21T14:27:15;3.43;;;2.33;;
10116;SDS011;5098;48.792;9.012;2023-11-21T14:29:41;2.73;;;2.13;;
10116;SDS011;5098;48.792;9.012;2023-11-21T14:32:09;3.27;;;2.50;;
10116;SDS011;5098;48.792;9.012;2023-11-21T14:34:36;3.00;;;2.80;;
10116;SDS011;5098;48.792;9.012;2023-11-21T14:37:03;2.73;;;2.53;;
10116;SDS011;5098;48.792;9.012;2023-11-21T14:39:29;2.80;;;2.60;;
10116;SDS011;5098;48.792;9.012;2023-11-21T14:41:55;3.60;;;2.17;;
10116;SDS011;5098;48.792;9.012;2023-11-21T14:44:22;4.50;;;2.87;;
10116;SDS011;5098;48.792;9.012;2023-11-21T14:46:51;3.07;;;2.70;;
10116;SDS011;5098;48.792;9.012;2023-11-21T14:49:19;3.50;;;3.20;;
10116;SDS011;5098;48.792;9.012;2023-11-21T14:51:47;3.60;;;3.07;;
10116;SDS011;5098;48.792;9.012;2023-11-21T14:54:28;2.57;;;2.37;;
10116;SDS011;5098;48.792;9.012;2023-11-21T14:57:08;2.13;;;1.93;;
10116;SDS011;5098;48.792;9.012;2023-11-21T14:59:36;3.90;;;2.83;;
10116;SDS011;5098;48.792;9.012;2023-11-21T15:02:02;4.23;;;3.80;;
10116;SDS011;5098;48.792;9.012;2023-11-21T15:04:40;2.60;;;2.40;;
10116;SDS011;5098;48.792;9.012;2023-11-21T15:07:07;2.23;;;1.97;;
10116;SDS011;5098;48.792;9.012;2023-11-21T15:09:33;3.60;;;2.00;;
10116;SDS011;5098;48.792;9.012;2023-11-21T15:12:06;2.00;;;1.90;;